Time;durP1;ratioP1;P1;durP2;ratioP2;P2;SDS_P1;SDS_P2;PMS_P1;PMS_P2;Temp;Humidity;BMP_temperature;BMP_pressure;BME280_temperature;BME280_humidity;BME280_pressure;Samples;Min_cycle;Max_cycle;Signal;HPM_P1;HPM_P2
2023/09/23 00:02:21;;;;;;;1.45;0.68;;;17.10;65.50;18.90;100521.00;;;;5023375;28;20596;-78
2023/09/23 00:04:48;;;;;;;1.38;0.63;;;17.10;65.40;18.90;100521.00;;;;5026434;28;20208;-78
2023/09/23 00:07:17;;;;;;;1.25;0.40;;;17.10;65.40;18.90;100527.00;;;;5026800;28;20215;-77
2023/09/23 00:09:44;;;;;;;1.02;0.50;;;17.10;65.10;18.90;100523.00;;;;5024257;28;20670;-77
2023/09/23 00:12:12;;;;;;;1.25;0.70;;;17.10;65.10;18.80;100536.00;;;;5014851;28;20208;-78
2023/09/23 00:14:40;;;;;;;2.55;0.70;;;17.10;65.20;18.80;100546.00;;;;5015128;28;20262;-78
2023/09/23 00:17:07;;;;;;;1.60;1.08;;;17.10;65.10;18.80;100541.00;;;;5022782;28;20236;-78
2023/09/23 00:19:35;;;;;;;1.42;0.80;;;17.00;65.00;18.80;100542.00;;;;5025390;28;20211;-77
2023/09/23 00:22:03;;;;;;;0.93;0.70;;;17.00;65.10;18.80;100538.00;;;;5030306;28;20310;-78
2023/09/23 00:24:31;;;;;;;0.98;0.85;;;17.00;65.20;18.80;100545.00;;;;5029916;28;20274;-77
2023/09/23 00:26:59;;;;;;;1.10;0.85;;;17.00;65.30;18.80;100556.00;;;;5031366;28;20568;-77
2023/09/23 00:29:28;;;;;;;1.73;1.17;;;17.00;65.40;18.80;100553.00;;;;5025782;28;20197;-77
2023/09/23 00:31:57;;;;;;;4.20;1.30;;;17.00;65.40;18.80;100559.00;;;;5012012;28;20208;-77
2023/09/23 00:34:24;;;;;;;2.45;1.30;;;17.00;65.50;18.80;100553.00;;;;5028668;28;20219;-77
2023/09/23 00:36:52;;;;;;;2.88;1.77;;;17.00;65.40;18.80;100562.00;;;;5028722;28;20416;-77
2023/09/23 00:39:19;;;;;;;2.38;1.83;;;17.00;65.40;18.80;100567.00;;;;5026326;28;20204;-77
2023/09/23 00:41:46;;;;;;;2.47;2.13;;;17.00;65.50;18.80;100566.00;;;;5026611;28;20200;-77
2023/09/23 00:44:13;;;;;;;2.30;1.95;;;17.00;65.50;18.80;100569.00;;;;5031321;28;20572;-77
2023/09/23 00:46:44;;;;;;;2.97;2.20;;;17.00;65.60;18.80;100564.00;;;;5029796;28;20208;-77
2023/09/23 00:49:14;;;;;;;5.38;3.03;;;17.00;65.60;18.80;100562.00;;;;5017070;28;20197;-77
2023/09/23 00:51:41;;;;;;;4.60;2.65;;;17.00;65.70;18.80;100552.00;;;;5028266;28;20218;-77
2023/09/23 00:54:08;;;;;;;3.55;2.70;;;17.00;65.70;18.80;100556.00;;;;5029208;28;20212;-77
2023/09/23 00:56:36;;;;;;;4.65;2.92;;;17.00;65.70;18.80;100555.00;;;;5026998;28;20570;-77
2023/09/23 00:59:05;;;;;;;3.40;2.97;;;17.00;65.80;18.80;100544.00;;;;5027951;28;20211;-78
2023/09/23 01:01:32;;;;;;;4.53;2.95;;;17.00;65.80;18.80;100555.00;;;;5030385;28;20666;-78
2023/09/23 01:03:59;;;;;;;3.17;2.70;;;17.00;65.80;18.80;100564.00;;;;5021369;28;20195;-77
2023/09/23 01:06:28;;;;;;;3.63;2.70;;;17.00;65.80;18.80;100560.00;;;;5029755;28;20203;-77
2023/09/23 01:08:57;;;;;;;3.00;2.65;;;17.00;65.80;18.80;100553.00;;;;5028110;28;20654;-77
2023/09/23 01:11:26;;;;;;;4.22;3.00;;;17.00;65.80;18.80;100554.00;;;;5028984;28;20278;-77
2023/09/23 01:13:54;;;;;;;3.95;3.55;;;17.00;65.80;18.80;100550.00;;;;5030024;28;20263;-77
2023/09/23 01:16:21;;;;;;;3.58;2.97;;;17.00;65.80;18.80;100557.00;;;;5026951;28;20288;-78
2023/09/23 01:18:49;;;;;;;4.07;3.25;;;17.00;65.80;18.80;100561.00;;;;5017415;28;20650;-77
2023/09/23 01:21:18;;;;;;;4.32;3.42;;;17.00;65.70;18.80;100562.00;;;;5018107;28;20216;-77
2023/09/23 01:23:46;;;;;;;3.08;2.83;;;17.00;65.60;18.70;100567.00;;;;5026646;28;20323;-77
2023/09/23 01:26:13;;;;;;;4.07;3.47;;;17.00;65.70;18.70;100575.00;;;;5025433;28;20207;-77
2023/09/23 01:28:41;;;;;;;5.00;3.40;;;17.00;65.70;18.70;100576.00;;;;5029630;28;20204;-77
2023/09/23 01:31:09;;;;;;;4.85;4.00;;;17.00;65.70;18.70;100574.00;;;;5030104;28;20196;-77
2023/09/23 01:33:38;;;;;;;5.22;4.18;;;16.90;65.60;18.70;100572.00;;;;5024887;28;20239;-77
2023/09/23 01:36:06;;;;;;;6.68;3.85;;;16.90;65.60;18.70;100581.00;;;;5024426;28;20193;-77
2023/09/23 01:38:33;;;;;;;4.63;4.20;;;16.90;65.60;18.70;100580.00;;;;5028677;28;20215;-77
2023/09/23 01:41:02;;;;;;;5.78;4.25;;;16.90;65.60;18.70;100583.00;;;;5030252;28;20231;-77
2023/09/23 01:43:29;;;;;;;4.32;3.92;;;16.90;65.60;18.60;100589.00;;;;5029815;28;20217;-77
2023/09/23 01:46:02;;;;;;;5.28;4.53;;;16.90;65.50;18.60;100587.00;;;;5028447;28;20211;-77
2023/09/23 01:48:29;;;;;;;5.00;4.50;;;16.90;65.50;18.60;100588.00;;;;5030298;28;20197;-77
2023/09/23 01:50:56;;;;;;;4.35;3.95;;;16.90;65.50;18.60;100591.00;;;;5029716;28;20196;-78
2023/09/23 01:53:25;;;;;;;5.47;3.90;;;16.90;65.60;18.60;100596.00;;;;5029846;28;20632;-77
2023/09/23 01:55:52;;;;;;;5.40;4.45;;;16.80;65.60;18.60;100598.00;;;;5015334;28;20204;-78
2023/09/23 01:58:22;;;;;;;4.60;4.13;;;16.80;65.70;18.60;100599.00;;;;5029687;28;20204;-78
2023/09/23 02:00:50;;;;;;;5.38;4.88;;;16.80;65.80;18.60;100609.00;;;;5029282;28;20741;-78
2023/09/23 02:03:17;;;;;;;5.63;5.10;;;16.80;65.70;18.60;100603.00;;;;5029246;28;20197;-77
2023/09/23 02:05:44;;;;;;;7.20;5.57;;;16.80;65.70;18.50;100604.00;;;;5024007;28;20197;-78
2023/09/23 02:08:11;;;;;;;7.03;5.15;;;16.80;65.70;18.50;100605.00;;;;5019183;28;20276;-77
2023/09/23 02:10:38;;;;;;;7.97;6.22;;;16.80;65.80;18.50;100607.00;;;;5021824;28;20207;-78
2023/09/23 02:13:05;;;;;;;7.40;5.57;;;16.80;65.80;18.50;100615.00;;;;5014766;28;20209;-77
2023/09/23 02:15:33;;;;;;;5.60;5.00;;;16.70;65.80;18.50;100615.00;;;;5026923;28;20642;-77
2023/09/23 02:18:04;;;;;;;6.40;5.53;;;16.70;65.70;18.50;100610.00;;;;5021017;28;20196;-77
2023/09/23 02:20:31;;;;;;;6.13;5.38;;;16.70;65.70;18.50;100613.00;;;;5026662;28;20261;-77
2023/09/23 02:22:58;;;;;;;7.90;6.15;;;16.70;65.80;18.50;100609.00;;;;5016138;28;20625;-77
2023/09/23 02:25:25;;;;;;;8.77;5.90;;;16.70;65.80;18.50;100617.00;;;;5019906;28;20253;-77
2023/09/23 02:27:52;;;;;;;7.82;6.40;;;16.60;65.70;18.40;100622.00;;;;5019762;28;20204;-77
2023/09/23 02:30:20;;;;;;;8.20;5.97;;;16.70;65.80;18.40;100617.00;;;;5026596;28;20558;-77
2023/09/23 02:32:48;;;;;;;7.22;5.75;;;16.70;65.80;18.40;100611.00;;;;5027027;28;20203;-77
2023/09/23 02:35:17;;;;;;;7.47;6.00;;;16.60;65.90;18.40;100617.00;;;;5023156;28;20224;-77
2023/09/23 02:37:47;;;;;;;7.82;6.35;;;16.60;65.90;18.40;100619.00;;;;5025756;28;20239;-77
2023/09/23 02:40:15;;;;;;;8.02;6.72;;;16.60;65.90;18.40;100616.00;;;;5024665;28;20197;-77
2023/09/23 02:42:44;;;;;;;7.07;6.35;;;16.60;65.90;18.40;100621.00;;;;5026842;28;20584;-77
2023/09/23 02:45:13;;;;;;;6.85;6.15;;;16.60;65.90;18.40;100626.00;;;;5027791;28;20200;-78
2023/09/23 02:47:43;;;;;;;6.82;6.13;;;16.60;66.10;18.40;100619.00;;;;5026550;28;20196;-77
2023/09/23 02:50:13;;;;;;;7.78;6.22;;;16.60;66.10;18.40;100621.00;;;;5026138;28;20285;-78
2023/09/23 02:52:41;;;;;;;6.03;5.25;;;16.60;66.20;18.40;100630.00;;;;5025531;28;20208;-77
2023/09/23 02:55:12;;;;;;;7.15;6.40;;;16.60;66.20;18.30;100625.00;;;;5019296;28;20235;-77
2023/09/23 02:57:40;;;;;;;7.53;6.60;;;16.60;66.10;18.40;100627.00;;;;5026285;28;20196;-77
2023/09/23 03:00:18;;;;;;;7.72;6.97;;;16.60;66.10;18.30;100637.00;;;;5025990;28;20204;-77
2023/09/23 03:02:48;;;;;;;6.60;5.85;;;16.60;66.20;18.30;100638.00;;;;5020900;28;20188;-78
2023/09/23 03:05:17;;;;;;;6.65;5.95;;;16.60;66.20;18.30;100638.00;;;;5024735;28;20789;-77
2023/09/23 03:07:48;;;;;;;7.35;6.35;;;16.60;66.20;18.30;100634.00;;;;5016378;28;20284;-77
2023/09/23 03:10:19;;;;;;;8.20;7.03;;;16.60;66.20;18.30;100641.00;;;;5022698;28;20203;-77
2023/09/23 03:13:01;;;;;;;8.02;6.35;;;16.60;66.20;18.30;100642.00;;;;5018929;28;20204;-78
2023/09/23 03:15:33;;;;;;;6.10;5.50;;;16.60;66.10;18.30;100641.00;;;;5026584;28;20216;-77
2023/09/23 03:18:00;;;;;;;7.28;6.13;;;16.60;66.20;18.30;100641.00;;;;5024457;28;20200;-77
2023/09/23 03:20:30;;;;;;;7.13;6.38;;;16.60;66.30;18.30;100645.00;;;;5024066;28;20207;-78
2023/09/23 03:22:57;;;;;;;6.80;5.97;;;16.60;66.30;18.30;100647.00;;;;5019178;28;20370;-77
2023/09/23 03:25:24;;;;;;;6.93;5.68;;;16.50;66.20;18.30;100648.00;;;;5025436;28;20852;-77
2023/09/23 03:27:53;;;;;;;7.80;6.03;;;16.50;66.20;18.30;100642.00;;;;5009245;28;20624;-77
2023/09/23 03:30:20;;;;;;;7.70;5.55;;;16.50;66.20;18.30;100644.00;;;;5027617;28;20254;-77
2023/09/23 03:32:49;;;;;;;6.80;5.80;;;16.50;66.20;18.30;100655.00;;;;5027499;28;20581;-77
2023/09/23 03:35:17;;;;;;;8.68;6.28;;;16.50;66.30;18.30;100658.00;;;;5027547;28;20670;-78
2023/09/23 03:37:50;;;;;;;9.20;6.25;;;16.50;66.30;18.30;100661.00;;;;5025631;28;20199;-78
2023/09/23 03:40:24;;;;;;;7.80;6.15;;;16.50;66.30;18.30;100655.00;;;;5020535;28;20670;-78
2023/09/23 03:42:51;;;;;;;6.15;5.43;;;16.50;66.30;18.30;100656.00;;;;5020147;28;20211;-78
2023/09/23 03:45:18;;;;;;;6.32;5.47;;;16.50;66.20;18.30;100655.00;;;;5022942;28;20203;-77
2023/09/23 03:47:46;;;;;;;6.72;6.10;;;16.50;66.30;18.30;100662.00;;;;5019023;28;20247;-77
2023/09/23 03:50:14;;;;;;;7.78;5.72;;;16.50;66.30;18.20;100665.00;;;;5016589;28;20716;-77
2023/09/23 03:52:41;;;;;;;6.68;6.05;;;16.50;66.20;18.20;100663.00;;;;5026736;28;20208;-78
2023/09/23 03:55:13;;;;;;;7.72;5.93;;;16.50;66.30;18.20;100650.00;;;;5019452;28;20698;-78
2023/09/23 03:57:42;;;;;;;6.50;4.93;;;16.50;66.30;18.20;100660.00;;;;5022335;28;20216;-77
2023/09/23 04:00:16;;;;;;;6.78;5.22;;;16.50;66.30;18.20;100658.00;;;;5019366;28;20243;-77
2023/09/23 04:02:47;;;;;;;6.55;4.88;;;16.50;66.40;18.20;100667.00;;;;5021655;28;20208;-77
2023/09/23 04:05:15;;;;;;;6.50;5.00;;;16.50;66.40;18.20;100660.00;;;;5024943;28;20216;-77
2023/09/23 04:07:49;;;;;;;6.03;5.15;;;16.50;66.50;18.10;100671.00;;;;5021556;28;20198;-77
2023/09/23 04:10:18;;;;;;;5.80;4.90;;;16.40;66.40;18.10;100672.00;;;;5025602;28;20199;-78
2023/09/23 04:12:45;;;;;;;5.50;4.90;;;16.40;66.60;18.10;100683.00;;;;5014911;28;20193;-78
2023/09/23 04:15:13;;;;;;;8.18;5.10;;;16.40;66.60;18.10;100685.00;;;;5013896;28;20721;-77
2023/09/23 04:17:40;;;;;;;5.40;4.57;;;16.40;66.60;18.10;100685.00;;;;5021689;28;20208;-78
2023/09/23 04:20:10;;;;;;;8.23;5.30;;;16.40;66.70;18.10;100686.00;;;;5022502;28;20212;-77
2023/09/23 04:22:37;;;;;;;7.22;4.78;;;16.40;66.70;18.10;100686.00;;;;5022284;28;20327;-77
2023/09/23 04:25:06;;;;;;;5.35;4.50;;;16.40;66.80;18.10;100687.00;;;;5019695;28;20658;-78
2023/09/23 04:27:36;;;;;;;5.78;4.63;;;16.40;66.90;18.10;100702.00;;;;5026589;28;20246;-77
2023/09/23 04:30:08;;;;;;;4.82;4.18;;;16.40;67.00;18.10;100712.00;;;;5017218;28;20535;-77
2023/09/23 04:32:35;;;;;;;5.15;4.18;;;16.40;67.00;18.10;100716.00;;;;5021985;28;20207;-77
2023/09/23 04:35:03;;;;;;;6.70;4.30;;;16.40;67.00;18.10;100713.00;;;;5015137;28;20216;-78
2023/09/23 04:37:30;;;;;;;7.20;5.30;;;16.40;67.00;18.10;100712.00;;;;5018471;28;20208;-77
2023/09/23 04:39:57;;;;;;;8.35;5.25;;;16.40;67.00;18.10;100722.00;;;;5015016;28;20211;-76
2023/09/23 04:42:24;;;;;;;7.05;5.22;;;16.40;67.00;18.10;100721.00;;;;5023704;28;20219;-76
2023/09/23 04:44:52;;;;;;;6.47;5.60;;;16.40;67.10;18.10;100730.00;;;;5018147;28;20201;-76
2023/09/23 04:47:19;;;;;;;5.57;4.88;;;16.40;67.10;18.10;100729.00;;;;5019866;28;20569;-76
2023/09/23 04:49:48;;;;;;;5.03;3.88;;;16.40;67.10;18.10;100738.00;;;;5008376;28;20733;-76
2023/09/23 04:52:16;;;;;;;5.75;4.43;;;16.50;67.10;18.10;100755.00;;;;5022912;28;20210;-77
2023/09/23 04:54:44;;;;;;;6.97;3.90;;;16.40;67.10;18.10;100740.00;;;;5030347;28;20220;-77
2023/09/23 04:57:13;;;;;;;7.18;4.53;;;16.50;67.10;18.10;100741.00;;;;5025399;28;20193;-77
2023/09/23 04:59:40;;;;;;;5.13;3.80;;;16.50;67.20;18.10;100746.00;;;;5025699;28;20204;-79
2023/09/23 05:02:09;;;;;;;5.10;3.88;;;16.40;67.10;18.10;100746.00;;;;5021287;28;20654;-80
2023/09/23 05:04:35;;;;;;;5.35;4.22;;;16.50;67.10;18.10;100742.00;;;;5029837;28;20204;-79
2023/09/23 05:07:03;;;;;;;7.10;3.72;;;16.50;67.10;18.10;100737.00;;;;5029960;28;20213;-80
2023/09/23 05:09:30;;;;;;;4.35;3.92;;;16.50;67.10;18.10;100750.00;;;;5021480;28;20580;-80
2023/09/23 05:11:57;;;;;;;5.00;3.78;;;16.50;67.10;18.10;100750.00;;;;5028154;28;20200;-80
2023/09/23 05:14:25;;;;;;;4.25;3.42;;;16.40;67.10;18.10;100756.00;;;;5023119;28;20220;-80
2023/09/23 05:16:52;;;;;;;4.70;3.80;;;16.50;67.20;18.10;100760.00;;;;5030735;28;20749;-80
2023/09/23 05:19:20;;;;;;;3.90;3.50;;;16.50;67.20;18.10;100765.00;;;;5028100;28;20723;-80
2023/09/23 05:21:47;;;;;;;5.47;3.58;;;16.40;67.20;18.10;100773.00;;;;5030626;28;20776;-80
2023/09/23 05:24:14;;;;;;;5.07;3.83;;;16.50;67.20;18.10;100774.00;;;;5030036;28;20236;-80
2023/09/23 05:26:43;;;;;;;5.97;3.53;;;16.50;67.20;18.10;100778.00;;;;5027577;28;20200;-80
2023/09/23 05:29:10;;;;;;;4.80;3.28;;;16.40;67.10;18.10;100785.00;;;;5031929;28;20998;-80
2023/09/23 05:31:37;;;;;;;5.32;3.20;;;16.50;67.20;18.10;100788.00;;;;5029396;28;20204;-80
2023/09/23 05:34:04;;;;;;;7.70;3.78;;;16.50;67.30;18.10;100783.00;;;;5029833;28;20208;-80
2023/09/23 05:36:33;;;;;;;5.10;3.53;;;16.50;67.30;18.10;100789.00;;;;5023454;28;20204;-80
2023/09/23 05:39:00;;;;;;;5.35;3.30;;;16.50;67.30;18.20;100791.00;;;;5019389;28;20203;-80
2023/09/23 05:41:27;;;;;;;3.83;3.40;;;16.50;67.30;18.20;100787.00;;;;5024932;28;20665;-80
2023/09/23 05:43:54;;;;;;;5.72;3.38;;;16.50;67.40;18.20;100793.00;;;;5026687;28;20207;-80
2023/09/23 05:46:21;;;;;;;4.47;3.70;;;16.50;67.50;18.20;100796.00;;;;5017898;28;20211;-80
2023/09/23 05:48:49;;;;;;;4.50;3.28;;;16.50;67.40;18.20;100805.00;;;;5025625;28;20322;-80
2023/09/23 05:51:16;;;;;;;4.43;3.45;;;16.50;67.40;18.20;100809.00;;;;5029190;28;20200;-80
2023/09/23 05:53:44;;;;;;;5.53;3.92;;;16.50;67.40;18.20;100806.00;;;;5024389;28;20192;-80
2023/09/23 05:56:12;;;;;;;4.60;3.25;;;16.50;67.40;18.20;100810.00;;;;5021428;28;20216;-80
2023/09/23 05:58:39;;;;;;;3.97;3.08;;;16.50;67.40;18.20;100822.00;;;;5027809;28;20196;-80
2023/09/23 06:01:08;;;;;;;3.92;2.85;;;16.50;67.30;18.20;100837.00;;;;5027186;28;20219;-79
2023/09/23 06:03:35;;;;;;;4.43;2.85;;;16.50;67.30;18.20;100839.00;;;;5026646;28;20280;-80
2023/09/23 06:06:02;;;;;;;3.72;3.03;;;16.50;67.20;18.20;100847.00;;;;5028276;28;20262;-80
2023/09/23 06:08:29;;;;;;;4.32;2.72;;;16.50;67.20;18.20;100852.00;;;;5026258;28;20922;-79
2023/09/23 06:11:04;;;;;;;3.53;2.72;;;16.50;67.20;18.10;100853.00;;;;5027553;28;20230;-80
2023/09/23 06:13:31;;;;;;;4.90;2.72;;;16.50;67.30;18.20;100855.00;;;;5027562;28;20262;-80
2023/09/23 06:16:03;;;;;;;4.75;2.63;;;16.50;67.20;18.10;100858.00;;;;5026693;28;20219;-80
2023/09/23 06:18:30;;;;;;;4.72;2.28;;;16.50;67.20;18.10;100853.00;;;;5025005;28;20196;-79
2023/09/23 06:21:01;;;;;;;2.45;2.08;;;16.50;67.20;18.10;100857.00;;;;5029023;28;20270;-79
2023/09/23 06:23:29;;;;;;;3.63;2.53;;;16.40;67.30;18.20;100863.00;;;;5014216;28;20231;-79
2023/09/23 06:26:00;;;;;;;4.60;2.33;;;16.40;67.20;18.20;100867.00;;;;5019552;28;20211;-82
2023/09/23 06:28:30;;;;;;;12.45;3.03;;;16.50;67.40;18.20;100864.00;;;;5026965;28;20196;-81
2023/09/23 06:30:57;;;;;;;3.30;2.65;;;16.50;67.50;18.20;100869.00;;;;5025262;28;20204;-79
2023/09/23 06:33:24;;;;;;;4.05;2.60;;;16.50;67.50;18.20;100870.00;;;;5027356;28;20577;-80
2023/09/23 06:35:52;;;;;;;4.00;2.60;;;16.50;67.50;18.30;100864.00;;;;5026010;28;20234;-79
2023/09/23 06:38:19;;;;;;;3.47;2.53;;;16.60;67.60;18.30;100875.00;;;;5023324;28;20224;-80
2023/09/23 06:40:46;;;;;;;5.28;2.65;;;16.60;67.70;18.30;100876.00;;;;5019341;28;20606;-80
2023/09/23 06:43:13;;;;;;;3.95;1.98;;;16.60;67.70;18.30;100882.00;;;;5024730;28;20713;-80
2023/09/23 06:45:41;;;;;;;4.82;2.00;;;16.60;67.70;18.40;100884.00;;;;5022906;28;20203;-80
2023/09/23 06:48:08;;;;;;;3.45;2.38;;;16.70;67.80;18.40;100891.00;;;;5027673;28;20204;-80
2023/09/23 06:50:35;;;;;;;4.82;2.47;;;16.60;67.70;18.40;100896.00;;;;5026772;28;20201;-81
2023/09/23 06:53:02;;;;;;;5.10;2.70;;;16.70;67.80;18.50;100900.00;;;;5025544;28;20197;-80
2023/09/23 06:55:29;;;;;;;3.00;2.40;;;16.70;67.80;18.50;100901.00;;;;5027975;28;20234;-80
2023/09/23 06:57:56;;;;;;;4.85;2.30;;;16.70;67.90;18.50;100907.00;;;;5020582;28;20214;-82
2023/09/23 07:00:24;;;;;;;3.42;2.55;;;16.80;68.00;18.60;100910.00;;;;5023537;28;20200;-81
2023/09/23 07:02:52;;;;;;;3.47;2.38;;;16.80;68.00;18.60;100924.00;;;;5021761;28;20576;-82
2023/09/23 07:05:19;;;;;;;3.47;1.88;;;16.80;68.00;18.70;100920.00;;;;5024135;28;20188;-82
2023/09/23 07:07:47;;;;;;;5.10;2.28;;;16.90;68.10;18.70;100932.00;;;;5023281;28;20200;-83
2023/09/23 07:10:14;;;;;;;2.67;1.90;;;16.90;68.10;18.70;100935.00;;;;5026029;28;20231;-82
2023/09/23 07:12:41;;;;;;;3.78;2.30;;;17.00;68.20;18.80;100936.00;;;;5022764;28;20208;-81
2023/09/23 07:15:09;;;;;;;3.90;2.22;;;17.00;68.20;18.80;100946.00;;;;5020488;28;20600;-81
2023/09/23 07:17:37;;;;;;;3.03;2.30;;;17.00;68.10;18.80;100940.00;;;;5018596;28;20989;-83
2023/09/23 07:20:07;;;;;;;5.20;2.45;;;17.10;68.10;18.80;100942.00;;;;5024212;28;20242;-82
2023/09/23 07:22:34;;;;;;;5.78;2.65;;;17.10;68.10;18.90;100945.00;;;;5020900;28;20220;-79
2023/09/23 07:25:01;;;;;;;3.38;2.53;;;17.20;68.20;18.90;100955.00;;;;5027100;28;20231;-79
2023/09/23 07:27:28;;;;;;;2.97;1.80;;;17.20;68.10;19.00;100947.00;;;;5017410;28;20291;-79
2023/09/23 07:29:56;;;;;;;4.38;2.00;;;17.20;68.10;19.00;100949.00;;;;5011595;28;20224;-80
2023/09/23 07:32:23;;;;;;;3.05;2.05;;;17.30;68.30;19.10;100956.00;;;;5020160;28;20554;-79
2023/09/23 07:34:50;;;;;;;3.40;2.20;;;17.30;68.30;19.10;100958.00;;;;5027233;28;20196;-80
2023/09/23 07:37:18;;;;;;;4.20;2.30;;;17.40;68.50;19.20;100960.00;;;;5024911;28;20587;-82
2023/09/23 07:39:45;;;;;;;5.07;3.17;;;17.40;68.60;19.20;100961.00;;;;5021152;28;20489;-80
2023/09/23 07:42:13;;;;;;;4.00;2.38;;;17.40;69.50;19.40;100967.00;;;;5027199;28;20204;-80
2023/09/23 07:44:40;;;;;;;4.40;2.10;;;17.50;69.40;19.40;100975.00;;;;5022081;28;20596;-79
2023/09/23 07:47:07;;;;;;;2.95;2.08;;;17.60;68.90;19.40;100979.00;;;;5028489;28;20868;-80
2023/09/23 07:49:35;;;;;;;3.63;1.98;;;17.70;68.60;19.40;100981.00;;;;5024235;28;20228;-80
2023/09/23 07:52:02;;;;;;;2.92;1.95;;;17.70;68.40;19.40;100986.00;;;;5026114;28;20188;-79
2023/09/23 07:54:31;;;;;;;4.70;2.20;;;17.80;68.20;19.40;100994.00;;;;5019764;28;20208;-79
2023/09/23 07:56:58;;;;;;;3.63;1.67;;;17.80;68.10;19.50;101003.00;;;;5021504;28;20228;-80
2023/09/23 07:59:25;;;;;;;2.70;2.05;;;17.80;67.90;19.50;101003.00;;;;5026104;28;20661;-81
2023/09/23 08:01:52;;;;;;;5.57;1.88;;;17.80;67.90;19.50;101010.00;;;;5023384;28;20286;-80
2023/09/23 08:04:19;;;;;;;2.83;1.77;;;17.90;67.90;19.50;101011.00;;;;5022889;28;20204;-80
2023/09/23 08:06:46;;;;;;;3.17;2.22;;;17.90;67.90;19.50;101002.00;;;;5020250;28;20683;-81
2023/09/23 08:09:12;;;;;;;2.90;1.73;;;17.90;67.90;19.60;101014.00;;;;5013626;28;20197;-80
2023/09/23 08:11:41;;;;;;;2.35;1.75;;;17.90;67.90;19.60;101021.00;;;;5023220;28;20200;-80
2023/09/23 08:14:08;;;;;;;3.75;2.00;;;17.90;67.90;19.60;101023.00;;;;5020322;28;20705;-79
2023/09/23 08:16:35;;;;;;;4.35;2.42;;;18.00;67.80;19.60;101025.00;;;;5026761;28;21117;-79
2023/09/23 08:19:02;;;;;;;4.75;2.38;;;18.00;67.70;19.60;101037.00;;;;5028270;28;20196;-79
2023/09/23 08:21:29;;;;;;;3.35;2.05;;;18.00;67.70;19.70;101035.00;;;;5027084;28;20728;-79
2023/09/23 08:23:57;;;;;;;3.00;2.22;;;18.00;67.80;19.70;101036.00;;;;5020275;28;20228;-79
2023/09/23 08:26:24;;;;;;;6.93;2.70;;;18.00;67.80;19.70;101048.00;;;;5023151;28;20281;-79
2023/09/23 08:28:53;;;;;;;2.75;2.00;;;18.00;67.80;19.70;101058.00;;;;5030573;28;20188;-80
2023/09/23 08:31:21;;;;;;;3.22;2.33;;;18.10;67.80;19.80;101057.00;;;;5027436;28;20228;-79
2023/09/23 08:33:48;;;;;;;3.17;1.88;;;18.10;67.80;19.80;101066.00;;;;5025530;28;20569;-79
2023/09/23 08:36:15;;;;;;;3.28;1.70;;;18.10;67.80;19.80;101065.00;;;;5030224;28;20232;-79
2023/09/23 08:38:42;;;;;;;6.20;1.77;;;18.20;67.80;19.80;101068.00;;;;5029385;28;20207;-80
2023/09/23 08:41:12;;;;;;;3.85;2.03;;;18.20;67.80;19.80;101071.00;;;;5028233;28;20200;-80
2023/09/23 08:43:44;;;;;;;3.63;2.40;;;18.20;67.80;19.80;101079.00;;;;5028750;28;20291;-79
2023/09/23 08:46:13;;;;;;;4.90;1.90;;;18.20;67.90;19.90;101080.00;;;;5025165;28;20207;-80
2023/09/23 08:48:41;;;;;;;4.15;2.13;;;18.20;67.80;19.90;101088.00;;;;5020413;28;20596;-80
2023/09/23 08:51:12;;;;;;;2.92;1.80;;;18.20;67.90;19.90;101092.00;;;;5030063;28;20200;-80
2023/09/23 08:53:40;;;;;;;5.93;2.17;;;18.20;68.20;19.90;101096.00;;;;5028244;28;20211;-80
2023/09/23 08:56:08;;;;;;;4.10;1.88;;;18.30;68.10;19.90;101096.00;;;;5030153;28;20216;-80
2023/09/23 08:58:35;;;;;;;3.22;1.77;;;18.30;68.10;20.00;101095.00;;;;5032307;28;20196;-80
2023/09/23 09:01:02;;;;;;;1.65;1.42;;;18.30;68.20;20.00;101105.00;;;;5013331;28;20197;-80
2023/09/23 09:03:31;;;;;;;2.00;1.35;;;18.30;68.20;20.00;101102.00;;;;5018865;28;20224;-80
2023/09/23 09:06:00;;;;;;;3.15;1.70;;;18.30;68.00;20.00;101113.00;;;;5027134;28;20208;-80
2023/09/23 09:08:27;;;;;;;5.53;2.00;;;18.40;68.00;20.00;101112.00;;;;5035318;28;20197;-79
2023/09/23 09:10:58;;;;;;;3.50;1.73;;;18.40;68.00;20.00;101113.00;;;;5030697;28;20304;-80
2023/09/23 09:13:31;;;;;;;4.97;1.85;;;18.40;68.00;20.00;101117.00;;;;5022484;28;20654;-81
2023/09/23 09:15:57;;;;;;;3.40;1.83;;;18.40;68.10;20.10;101124.00;;;;5025523;28;20231;-80
2023/09/23 09:18:25;;;;;;;2.85;1.80;;;18.40;68.00;20.10;101122.00;;;;5017999;28;20200;-79
2023/09/23 09:20:54;;;;;;;4.20;2.00;;;18.40;68.10;20.10;101130.00;;;;5024550;28;20216;-79
2023/09/23 09:23:21;;;;;;;3.30;2.55;;;18.50;68.20;20.20;101134.00;;;;5028006;28;20590;-79
2023/09/23 09:25:49;;;;;;;6.13;2.55;;;18.50;68.20;20.20;101135.00;;;;5031031;28;20231;-78
2023/09/23 09:28:19;;;;;;;4.10;2.58;;;18.50;68.20;20.20;101143.00;;;;5025495;28;20247;-79
2023/09/23 09:30:54;;;;;;;5.20;2.20;;;18.60;68.20;20.20;101155.00;;;;5027360;28;20573;-79
2023/09/23 09:33:25;;;;;;;5.22;2.10;;;18.60;68.30;20.30;101154.00;;;;5026171;28;20200;-79
2023/09/23 09:35:56;;;;;;;3.45;2.20;;;18.70;68.30;20.40;101159.00;;;;5025217;28;20259;-78
2023/09/23 09:38:24;;;;;;;5.90;3.00;;;18.70;68.50;20.40;101154.00;;;;5029481;28;20258;-79
2023/09/23 09:40:52;;;;;;;3.22;2.10;;;18.80;68.70;20.50;101150.00;;;;5029386;28;20200;-79
2023/09/23 09:43:21;;;;;;;3.17;2.20;;;18.80;68.70;20.50;101146.00;;;;5014993;28;20220;-79
2023/09/23 09:45:50;;;;;;;5.63;2.65;;;18.90;68.80;20.60;101149.00;;;;5026095;28;20197;-78
2023/09/23 09:48:20;;;;;;;4.25;2.22;;;18.90;68.70;20.60;101150.00;;;;5024748;28;20204;-78
2023/09/23 09:50:50;;;;;;;7.35;2.22;;;19.00;68.70;20.70;101153.00;;;;5026536;28;20208;-78
2023/09/23 09:53:20;;;;;;;3.53;1.95;;;19.00;68.50;20.70;101151.00;;;;5017079;28;20298;-79
2023/09/23 09:55:47;;;;;;;3.53;1.92;;;19.10;68.40;20.80;101150.00;;;;5028891;28;20205;-79
2023/09/23 09:58:14;;;;;;;2.97;1.88;;;19.10;68.20;20.80;101154.00;;;;5028273;28;20204;-76
2023/09/23 10:00:43;;;;;;;2.63;1.70;;;19.20;68.00;20.80;101148.00;;;;5031111;28;20203;-79
2023/09/23 10:03:12;;;;;;;5.85;1.92;;;19.20;67.90;20.80;101159.00;;;;5030029;28;20295;-79
2023/09/23 10:05:46;;;;;;;3.08;1.55;;;19.20;67.80;20.80;101161.00;;;;5024527;28;20711;-75
2023/09/23 10:08:15;;;;;;;3.58;2.08;;;19.30;67.90;20.80;101166.00;;;;5028315;28;20200;-77
2023/09/23 10:10:49;;;;;;;2.65;1.70;;;19.20;67.70;20.80;101165.00;;;;5027492;28;20270;-77
2023/09/23 10:13:22;;;;;;;3.75;1.63;;;19.20;67.70;20.80;101185.00;;;;5023920;28;20197;-76
2023/09/23 10:15:49;;;;;;;2.33;1.50;;;19.30;68.50;20.90;101183.00;;;;5029045;28;20200;-80
2023/09/23 10:18:19;;;;;;;2.55;1.60;;;19.30;67.80;20.80;101191.00;;;;5022241;28;20197;-78
2023/09/23 10:20:49;;;;;;;3.67;1.70;;;19.30;67.70;20.90;101185.00;;;;5026108;28;20574;-77
2023/09/23 10:23:19;;;;;;;4.82;2.25;;;19.30;67.70;20.90;101188.00;;;;5015710;28;20677;-77
2023/09/23 10:25:50;;;;;;;3.67;1.83;;;19.30;67.80;20.90;101192.00;;;;5028665;28;20291;-77
2023/09/23 10:28:22;;;;;;;3.20;2.00;;;19.30;67.90;20.90;101193.00;;;;5027037;28;20212;-77
2023/09/23 10:31:04;;;;;;;3.13;1.75;;;19.30;67.90;20.80;101192.00;;;;5029098;28;20200;-80
2023/09/23 10:33:34;;;;;;;3.38;1.48;;;19.30;67.90;20.90;101193.00;;;;5028090;28;20201;-80
2023/09/23 10:36:03;;;;;;;4.13;1.85;;;19.30;67.80;20.90;101193.00;;;;5022049;28;20325;-79
2023/09/23 10:38:34;;;;;;;2.05;1.27;;;19.30;67.90;20.90;101190.00;;;;5013350;28;20215;-80
2023/09/23 10:41:04;;;;;;;5.78;1.70;;;19.30;67.90;20.90;101191.00;;;;5017539;28;20196;-79
2023/09/23 10:43:32;;;;;;;3.67;2.00;;;19.30;68.00;20.90;101193.00;;;;5028106;28;20201;-80
2023/09/23 10:46:01;;;;;;;5.28;1.77;;;19.30;68.00;20.90;101198.00;;;;5021558;28;20193;-79
2023/09/23 10:48:29;;;;;;;5.05;1.58;;;19.30;68.10;21.00;101210.00;;;;5020896;28;20200;-79
2023/09/23 10:50:56;;;;;;;3.10;1.83;;;19.30;68.10;21.00;101211.00;;;;5024761;28;20200;-80
2023/09/23 10:53:24;;;;;;;3.53;1.92;;;19.30;68.20;21.00;101222.00;;;;5021914;28;20211;-77